KLBE/LBE METAR and TAF weather

Enter ICAO airport designator
Station Type Date Time Source
KLBE METAR 2020/09/21 01:47 UTC NOAA

KLBE 210147Z 00000KT 10SM SKC 12/ A3048


Station Type Date Time Source
KLBE Decoded METAR 2020/09/21 01:47 UTC NOAA

Latrobe / Westmorland, PA, United States (KLBE) 40-17N 079-24W
Sep 20, 2020 - 09:47 PM EDT / 2020.09.21 0147 UTC
Wind: Calm:0
Visibility: 10 mile(s):0
Sky conditions: clear
Temperature: 53 F (12 C)
Pressure (altimeter): 30.48 in. Hg (1032 hPa)
ob: KLBE 210147Z 00000KT 10SM SKC 12/ A3048
cycle: 2

Station Type Date Time Source
KLBE TAF 2020/09/21 06:22 UTC NOAA

TAF KLBE 210520Z 2106/2206 11005KT P6SM SKC
AMD NOT SKED 2106/2111

Example: see airport list